Terminal Aerodrome Forecast
Issued by NWS

Home | Current Version | Previous Version | Graphics & Text | Print | Product List | Glossary On
Versions: 1 2 3 4 5 6 7 8 9 10 11 12 13 14 15 16 17 18
544
FTUS43 KUNR 290520
TAFGCC
TAF
KGCC 290520Z 2906/3006 19005KT P6SM SKC
     FM291700 27006KT P6SM SCT250
     FM292100 34011KT P6SM BKN250
     FM300000 04007KT P6SM SCT060 OVC150=

USA.gov is the U.S. government's official web portal to all federal, state and local government web resources and services.